Time;durP1;ratioP1;P1;durP2;ratioP2;P2;SDS_P1;SDS_P2;PMS_P1;PMS_P2;Temp;Humidity;BMP_temperature;BMP_pressure;BME280_temperature;BME280_humidity;BME280_pressure;Samples;Min_cycle;Max_cycle;Signal;HPM_P1;HPM_P2
2023/11/12 00:01:23;;;;;;;;;;;;;;;4.90;88.36;100059.77;106194;1259;125505;-82
2023/11/12 00:03:50;;;;;;;;;;;;;;;4.86;88.37;100059.45;106261;1257;72668;-84
2023/11/12 00:06:19;;;;;;;;;;;;;;;4.83;88.49;100061.59;106070;1257;126629;-82
2023/11/12 00:08:46;;;;;;;;;;;;;;;4.81;88.59;100060.48;106276;1256;62163;-82
2023/11/12 00:11:14;;;;;;;;;;;;;;;4.78;88.68;100060.92;106272;1257;74163;-86
2023/11/12 00:13:41;;;;;;;;;;;;;;;4.76;88.72;100062.23;106309;1257;124902;-87
2023/11/12 00:16:07;;;;;;;;;;;;;;;4.74;88.69;100059.02;106293;1258;72756;-83
2023/11/12 00:18:34;;;;;;;;;;;;;;;4.73;88.79;100061.92;106234;1260;125024;-83
2023/11/12 00:21:01;;;;;;;;;;;;;;;4.70;88.87;100061.48;106362;1258;62058;-87
2023/11/12 00:23:27;;;;;;;;;;;;;;;4.69;88.96;100062.48;106325;1258;75567;-83
2023/11/12 00:25:54;;;;;;;;;;;;;;;4.67;88.94;100063.30;106287;1257;124239;-87
2023/11/12 00:28:22;;;;;;;;;;;;;;;4.66;89.07;100060.82;106385;1258;72757;-86
2023/11/12 00:30:48;;;;;;;;;;;;;;;4.64;89.13;100059.54;106268;1258;125173;-86
2023/11/12 00:33:15;;;;;;;;;;;;;;;4.63;89.16;100062.27;106372;1257;62061;-86
2023/11/12 00:35:42;;;;;;;;;;;;;;;4.62;89.21;100061.02;106427;1257;74491;-86
2023/11/12 00:38:09;;;;;;;;;;;;;;;4.62;89.31;100063.27;106414;1258;66207;-83
2023/11/12 00:40:36;;;;;;;;;;;;;;;4.60;89.24;100057.64;106244;1257;72486;-83
2023/11/12 00:43:03;;;;;;;;;;;;;;;4.58;89.27;100056.66;106100;1257;125765;-83
2023/11/12 00:45:33;;;;;;;;;;;;;;;4.55;89.20;100057.94;106215;1258;62005;-86
2023/11/12 00:48:00;;;;;;;;;;;;;;;4.50;89.36;100052.20;106228;1257;125280;-86
2023/11/12 00:50:27;;;;;;;;;;;;;;;4.47;89.41;100059.73;106622;1260;65966;-82
2023/11/12 00:52:53;;;;;;;;;;;;;;;4.45;89.54;100060.38;106340;1257;71501;-81
2023/11/12 00:55:20;;;;;;;;;;;;;;;4.44;89.73;100065.69;106227;1257;125118;-85
2023/11/12 00:57:47;;;;;;;;;;;;;;;4.42;89.56;100064.06;106356;1257;62045;-85
2023/11/12 01:00:14;;;;;;;;;;;;;;;4.40;89.76;100066.95;106278;1261;124039;-85
2023/11/12 01:02:41;;;;;;;;;;;;;;;4.37;89.81;100068.56;106234;1257;66315;-81
2023/11/12 01:05:08;;;;;;;;;;;;;;;4.36;89.93;100067.48;106351;1257;72469;-81
2023/11/12 01:07:38;;;;;;;;;;;;;;;4.35;89.92;100067.60;106324;1259;125268;-86
2023/11/12 01:10:05;;;;;;;;;;;;;;;4.32;89.99;100071.30;106536;1258;62053;-85
2023/11/12 01:12:31;;;;;;;;;;;;;;;4.29;90.03;100070.52;106723;1257;125085;-87
2023/11/12 01:14:58;;;;;;;;;;;;;;;4.25;89.86;100065.15;106248;1257;65558;-81
2023/11/12 01:17:25;;;;;;;;;;;;;;;4.21;89.78;100064.80;106305;1258;71434;-81
2023/11/12 01:19:51;;;;;;;;;;;;;;;4.17;89.73;100067.42;106231;1258;124939;-82
2023/11/12 01:22:18;;;;;;;;;;;;;;;4.12;89.82;100065.51;106395;1258;62120;-80
2023/11/12 01:24:45;;;;;;;;;;;;;;;4.09;89.94;100064.69;106182;1261;125275;-81
2023/11/12 01:27:11;;;;;;;;;;;;;;;4.07;90.09;100062.17;106220;1263;66931;-86
2023/11/12 01:29:38;;;;;;;;;;;;;;;4.04;90.01;100058.58;106432;1258;71637;-86
2023/11/12 01:32:05;;;;;;;;;;;;;;;4.01;90.09;100058.83;106272;1258;125020;-81
2023/11/12 01:34:32;;;;;;;;;;;;;;;3.99;90.16;100058.55;106572;1257;62014;-86
2023/11/12 01:36:59;;;;;;;;;;;;;;;3.98;90.31;100061.46;106359;1261;124927;-87
2023/11/12 01:39:26;;;;;;;;;;;;;;;3.98;90.50;100060.26;106447;1257;66425;-87
2023/11/12 01:41:53;;;;;;;;;;;;;;;3.98;90.49;100060.59;106360;1258;125764;-82
2023/11/12 01:44:20;;;;;;;;;;;;;;;3.96;90.50;100059.46;106453;1257;62067;-87
2023/11/12 01:46:48;;;;;;;;;;;;;;;3.96;90.52;100059.80;106430;1258;62091;-86
2023/11/12 01:49:14;;;;;;;;;;;;;;;3.94;90.46;100057.34;106269;1258;123936;-82
2023/11/12 01:51:41;;;;;;;;;;;;;;;3.95;90.63;100053.19;106386;1263;65530;-81
2023/11/12 01:54:08;;;;;;;;;;;;;;;3.97;90.85;100054.65;106155;1259;125716;-81
2023/11/12 01:56:34;;;;;;;;;;;;;;;4.02;91.16;100056.09;106200;1263;62070;-81
2023/11/12 01:59:03;;;;;;;;;;;;;;;4.10;91.35;100058.83;106222;1258;62045;-81
2023/11/12 02:01:30;;;;;;;;;;;;;;;4.18;91.50;100059.86;106100;1264;125455;-80
2023/11/12 02:03:56;;;;;;;;;;;;;;;4.28;91.66;100058.13;106220;1261;65268;-80
2023/11/12 02:06:24;;;;;;;;;;;;;;;4.36;91.74;100057.58;106185;1258;125087;-85
2023/11/12 02:08:51;;;;;;;;;;;;;;;4.42;91.52;100058.86;106236;1258;62646;-81
2023/11/12 02:11:18;;;;;;;;;;;;;;;4.45;91.34;100056.53;106183;1261;61904;-82
2023/11/12 02:13:45;;;;;;;;;;;;;;;4.44;91.15;100057.02;106112;1259;125375;-82
2023/11/12 02:16:11;;;;;;;;;;;;;;;4.40;90.87;100054.09;106465;1258;65942;-82
2023/11/12 02:18:38;;;;;;;;;;;;;;;4.35;90.71;100050.94;106317;1258;125446;-81
2023/11/12 02:21:05;;;;;;;;;;;;;;;4.30;90.58;100048.83;106382;1263;62125;-79
2023/11/12 02:23:36;;;;;;;;;;;;;;;4.26;90.50;100050.60;106305;1257;60452;-80
2023/11/12 02:26:02;;;;;;;;;;;;;;;4.25;90.59;100049.33;106627;1259;124866;-85
2023/11/12 02:28:29;;;;;;;;;;;;;;;4.25;90.75;100052.81;106619;1261;64986;-81
2023/11/12 02:30:56;;;;;;;;;;;;;;;4.25;90.64;100050.20;106209;1258;124969;-80
2023/11/12 02:33:27;;;;;;;;;;;;;;;4.25;90.62;100047.60;106354;1258;62237;-79
2023/11/12 02:35:55;;;;;;;;;;;;;;;4.24;90.58;100048.77;106142;1257;125374;-81
2023/11/12 02:38:23;;;;;;;;;;;;;;;4.24;90.58;100043.73;106473;1259;75156;-82
2023/11/12 02:40:50;;;;;;;;;;;;;;;4.25;90.72;100043.61;106391;1258;66434;-86
2023/11/12 02:43:18;;;;;;;;;;;;;;;4.28;90.76;100044.44;106378;1258;125107;-86
2023/11/12 02:45:44;;;;;;;;;;;;;;;4.32;90.78;100043.50;106527;1261;62111;-81
2023/11/12 02:48:11;;;;;;;;;;;;;;;4.34;90.69;100042.39;106216;1258;125433;-81
2023/11/12 02:50:38;;;;;;;;;;;;;;;4.37;90.75;100044.75;106370;1256;75381;-81
2023/11/12 02:53:07;;;;;;;;;;;;;;;4.42;90.90;100042.69;106331;1263;64949;-81
2023/11/12 02:55:33;;;;;;;;;;;;;;;4.47;90.97;100042.89;106124;1262;125067;-82
2023/11/12 02:58:00;;;;;;;;;;;;;;;4.54;91.01;100042.98;106286;1257;62040;-81
2023/11/12 03:00:30;;;;;;;;;;;;;;;4.62;91.01;100035.27;106313;1258;126198;-81
2023/11/12 03:03:00;;;;;;;;;;;;;;;4.70;91.03;100036.11;106143;1264;75456;-81
2023/11/12 03:05:27;;;;;;;;;;;;;;;4.78;90.92;100040.58;106271;1257;68357;-81
2023/11/12 03:07:54;;;;;;;;;;;;;;;4.84;90.79;100040.61;106416;1261;125223;-86
2023/11/12 03:10:21;;;;;;;;;;;;;;;4.91;90.80;100034.95;106493;1257;60122;-86
2023/11/12 03:12:48;;;;;;;;;;;;;;;4.98;90.72;100038.69;106365;1257;127231;-87
2023/11/12 03:15:15;;;;;;;;;;;;;;;5.05;90.51;100033.38;106340;1257;75110;-86
2023/11/12 03:17:42;;;;;;;;;;;;;;;5.13;90.49;100035.91;106437;1258;66280;-86
2023/11/12 03:20:12;;;;;;;;;;;;;;;5.19;90.34;100035.27;106334;1257;124763;-82
2023/11/12 03:22:38;;;;;;;;;;;;;;;5.24;90.18;100035.27;106339;1257;61978;-87
2023/11/12 03:25:05;;;;;;;;;;;;;;;5.28;90.07;100034.67;106234;1257;123958;-80
2023/11/12 03:27:34;;;;;;;;;;;;;;;5.29;89.78;100034.56;106151;1264;76840;-82
2023/11/12 03:30:01;;;;;;;;;;;;;;;5.29;89.62;100041.84;106182;1261;125179;-87
2023/11/12 03:32:28;;;;;;;;;;;;;;;5.26;89.44;100038.46;106413;1257;71378;-87
2023/11/12 03:34:55;;;;;;;;;;;;;;;5.26;89.47;100040.17;106439;1258;62201;-86
2023/11/12 03:37:22;;;;;;;;;;;;;;;5.27;89.47;100041.42;106348;1260;125411;-86
2023/11/12 03:39:49;;;;;;;;;;;;;;;5.29;89.52;100038.21;106152;1257;75857;-81
2023/11/12 03:42:16;;;;;;;;;;;;;;;5.33;89.54;100037.14;106200;1261;125049;-86
2023/11/12 03:44:43;;;;;;;;;;;;;;;5.38;89.54;100041.64;106586;1257;72707;-86
2023/11/12 03:47:12;;;;;;;;;;;;;;;5.42;89.68;100037.77;106364;1260;62110;-82
2023/11/12 03:49:40;;;;;;;;;;;;;;;5.47;89.55;100037.45;106265;1259;124930;-86
2023/11/12 03:52:07;;;;;;;;;;;;;;;5.51;89.54;100036.16;106634;1258;74225;-86
2023/11/12 03:54:35;;;;;;;;;;;;;;;5.54;89.45;100036.11;106606;1258;125199;-87
2023/11/12 03:57:02;;;;;;;;;;;;;;;5.58;89.51;100035.20;106404;1258;72390;-85
2023/11/12 03:59:29;;;;;;;;;;;;;;;5.61;89.53;100035.48;106383;1258;62070;-81
2023/11/12 04:01:55;;;;;;;;;;;;;;;5.64;89.46;100031.55;106209;1260;125582;-81
2023/11/12 04:04:22;;;;;;;;;;;;;;;5.66;89.52;100030.05;106203;1261;74268;-84
2023/11/12 04:06:49;;;;;;;;;;;;;;;5.69;89.57;100031.88;106468;1258;125432;-85
2023/11/12 04:09:16;;;;;;;;;;;;;;;5.70;89.49;100035.24;106994;1259;71728;-85
2023/11/12 04:11:43;;;;;;;;;;;;;;;5.73;89.58;100037.92;106566;1258;62199;-85
2023/11/12 04:14:09;;;;;;;;;;;;;;;5.74;89.63;100036.07;106342;1263;125213;-84
2023/11/12 04:16:36;;;;;;;;;;;;;;;5.75;89.57;100038.02;106332;1258;75461;-85
2023/11/12 04:19:03;;;;;;;;;;;;;;;5.74;89.52;100037.27;106321;1258;124917;-85
2023/11/12 04:21:30;;;;;;;;;;;;;;;5.69;89.30;100036.26;106400;1258;71329;-85
2023/11/12 04:23:57;;;;;;;;;;;;;;;5.63;89.26;100037.11;106174;1259;125408;-85
2023/11/12 04:26:24;;;;;;;;;;;;;;;5.57;89.32;100036.39;106444;1259;62062;-85
2023/11/12 04:28:51;;;;;;;;;;;;;;;5.52;89.24;100037.75;106439;1262;75563;-85
2023/11/12 04:31:17;;;;;;;;;;;;;;;5.45;89.30;100033.71;106293;1262;125560;-86
2023/11/12 04:33:46;;;;;;;;;;;;;;;5.42;89.43;100038.46;106388;1261;73766;-86
2023/11/12 04:36:14;;;;;;;;;;;;;;;5.41;89.67;100040.17;106293;1262;125258;-86
2023/11/12 04:38:41;;;;;;;;;;;;;;;5.43;89.95;100041.31;106456;1258;62178;-86
2023/11/12 04:41:11;;;;;;;;;;;;;;;5.48;90.13;100045.48;106421;1258;76599;-86
2023/11/12 04:43:40;;;;;;;;;;;;;;;5.53;90.25;100046.34;106326;1263;125263;-84
2023/11/12 04:46:06;;;;;;;;;;;;;;;5.56;90.25;100046.09;106418;1257;72537;-81
2023/11/12 04:48:33;;;;;;;;;;;;;;;5.60;90.22;100045.52;106283;1257;125125;-80
2023/11/12 04:51:00;;;;;;;;;;;;;;;5.62;90.16;100045.45;106425;1262;61984;-82
2023/11/12 04:53:28;;;;;;;;;;;;;;;5.64;90.18;100042.02;106462;1256;74735;-82
2023/11/12 04:55:55;;;;;;;;;;;;;;;5.67;90.07;100042.80;106241;1262;127749;-82
2023/11/12 04:58:22;;;;;;;;;;;;;;;5.69;90.10;100042.52;106431;1256;71742;-82
2023/11/12 05:00:49;;;;;;;;;;;;;;;5.71;89.98;100042.07;106066;1258;125238;-81
2023/11/12 05:03:16;;;;;;;;;;;;;;;5.71;89.98;100043.64;106163;1258;62645;-82
2023/11/12 05:05:42;;;;;;;;;;;;;;;5.71;89.85;100044.14;106164;1261;75291;-82
2023/11/12 05:08:09;;;;;;;;;;;;;;;5.69;89.74;100041.80;106121;1258;124815;-81
2023/11/12 05:10:36;;;;;;;;;;;;;;;5.63;89.59;100044.25;106208;1263;70417;-81
2023/11/12 05:13:03;;;;;;;;;;;;;;;5.57;89.42;100042.30;106226;1261;124945;-82
2023/11/12 05:15:30;;;;;;;;;;;;;;;5.49;89.30;100043.08;106247;1262;62136;-81
2023/11/12 05:17:58;;;;;;;;;;;;;;;5.40;89.15;100042.42;106176;1263;125162;-81
2023/11/12 05:20:24;;;;;;;;;;;;;;;5.30;89.03;100043.30;106249;1256;65179;-81
2023/11/12 05:22:52;;;;;;;;;;;;;;;5.21;89.09;100048.02;106216;1259;72402;-82
2023/11/12 05:25:20;;;;;;;;;;;;;;;5.13;89.09;100051.57;106153;1258;124993;-82
2023/11/12 05:27:47;;;;;;;;;;;;;;;5.05;89.07;100050.23;106474;1257;60056;-82
2023/11/12 05:30:13;;;;;;;;;;;;;;;4.97;89.15;100059.34;106187;1258;125237;-82
2023/11/12 05:32:40;;;;;;;;;;;;;;;4.90;89.20;100058.05;106292;1259;65980;-82
2023/11/12 05:35:07;;;;;;;;;;;;;;;4.84;89.22;100060.96;106345;1261;72733;-82
2023/11/12 05:37:33;;;;;;;;;;;;;;;4.80;89.24;100063.57;106265;1259;125859;-82
2023/11/12 05:40:00;;;;;;;;;;;;;;;4.76;89.34;100064.66;106430;1257;62041;-83
2023/11/12 05:42:27;;;;;;;;;;;;;;;4.73;89.42;100066.80;106330;1259;124876;-85
2023/11/12 05:44:53;;;;;;;;;;;;;;;4.71;89.47;100071.59;106344;1261;66430;-84
2023/11/12 05:47:20;;;;;;;;;;;;;;;4.70;89.49;100072.60;106541;1257;71828;-85
2023/11/12 05:49:47;;;;;;;;;;;;;;;4.72;89.69;100076.16;106252;1258;124233;-86
2023/11/12 05:52:14;;;;;;;;;;;;;;;4.73;89.63;100079.52;106845;1258;61985;-86
2023/11/12 05:54:41;;;;;;;;;;;;;;;4.73;89.70;100082.44;106477;1261;129605;-87
2023/11/12 05:57:07;;;;;;;;;;;;;;;4.73;89.53;100083.30;106593;1256;66285;-87
2023/11/12 05:59:34;;;;;;;;;;;;;;;4.71;89.47;100083.41;106487;1258;71781;-86
2023/11/12 06:02:01;;;;;;;;;;;;;;;4.71;89.57;100083.73;106317;1259;125144;-83
2023/11/12 06:04:28;;;;;;;;;;;;;;;4.71;89.48;100086.70;106436;1257;62103;-82
2023/11/12 06:06:55;;;;;;;;;;;;;;;4.71;89.47;100081.66;106114;1258;125248;-83
2023/11/12 06:09:22;;;;;;;;;;;;;;;4.74;89.52;100081.63;106307;1258;64809;-84
2023/11/12 06:11:49;;;;;;;;;;;;;;;4.79;89.52;100088.40;106180;1264;124260;-82
2023/11/12 06:14:15;;;;;;;;;;;;;;;4.82;89.39;100084.17;106186;1261;62034;-83
2023/11/12 06:16:42;;;;;;;;;;;;;;;4.86;89.43;100089.53;106325;1258;62090;-83
2023/11/12 06:19:09;;;;;;;;;;;;;;;4.90;89.36;100092.44;106111;1259;124972;-82
2023/11/12 06:21:35;;;;;;;;;;;;;;;4.93;89.24;100093.44;106336;1259;65578;-86
2023/11/12 06:24:04;;;;;;;;;;;;;;;4.95;89.19;100093.18;106387;1256;125116;-85
2023/11/12 06:26:31;;;;;;;;;;;;;;;5.00;89.17;100097.17;106393;1258;61958;-85
2023/11/12 06:28:57;;;;;;;;;;;;;;;5.07;89.35;100096.22;106547;1258;62095;-85
2023/11/12 06:31:24;;;;;;;;;;;;;;;5.17;89.30;100102.98;106333;1258;125042;-85
2023/11/12 06:33:51;;;;;;;;;;;;;;;5.25;89.27;100100.70;106474;1257;66046;-86
2023/11/12 06:36:17;;;;;;;;;;;;;;;5.34;89.21;100096.98;106274;1259;125756;-82
2023/11/12 06:38:44;;;;;;;;;;;;;;;5.40;88.92;100096.36;106227;1258;62458;-82
2023/11/12 06:41:11;;;;;;;;;;;;;;;5.46;88.83;100100.21;106344;1258;62023;-82
2023/11/12 06:43:37;;;;;;;;;;;;;;;5.51;88.70;100096.90;106234;1257;124044;-79
2023/11/12 06:46:05;;;;;;;;;;;;;;;5.57;88.66;100096.92;106484;1263;65011;-80
2023/11/12 06:48:33;;;;;;;;;;;;;;;5.64;88.52;100097.72;106325;1262;126330;-80
2023/11/12 06:50:59;;;;;;;;;;;;;;;5.73;88.55;100103.75;106552;1257;59976;-80
2023/11/12 06:53:26;;;;;;;;;;;;;;;5.81;88.44;100106.29;106345;1262;62049;-80
2023/11/12 06:55:53;;;;;;;;;;;;;;;5.90;88.40;100106.59;106133;1258;124929;-80
2023/11/12 06:58:20;;;;;;;;;;;;;;;6.00;88.29;100102.08;106124;1261;63796;-81
2023/11/12 07:00:47;;;;;;;;;;;;;;;6.09;88.17;100102.19;106117;1258;124932;-80
2023/11/12 07:03:14;;;;;;;;;;;;;;;6.19;88.12;100095.90;106269;1258;62060;-79
2023/11/12 07:05:42;;;;;;;;;;;;;;;6.30;88.17;100101.48;106316;1256;62085;-79
2023/11/12 07:08:09;;;;;;;;;;;;;;;6.39;88.02;100100.02;106352;1258;124912;-80
2023/11/12 07:10:39;;;;;;;;;;;;;;;6.46;87.92;100097.63;106405;1262;65546;-85
2023/11/12 07:13:06;;;;;;;;;;;;;;;6.53;87.90;100099.55;106531;1257;125256;-78
2023/11/12 07:15:33;;;;;;;;;;;;;;;6.61;87.81;100101.56;106597;1261;62001;-80
2023/11/12 07:18:00;;;;;;;;;;;;;;;6.70;87.80;100102.70;106532;1260;125944;-79
2023/11/12 07:20:32;;;;;;;;;;;;;;;6.78;87.72;100101.05;106446;1257;75211;-79
2023/11/12 07:22:59;;;;;;;;;;;;;;;6.83;87.45;100106.73;106526;1257;65445;-81
2023/11/12 07:25:26;;;;;;;;;;;;;;;6.86;87.40;100106.29;106479;1258;125054;-85
2023/11/12 07:27:53;;;;;;;;;;;;;;;6.89;87.26;100111.29;106419;1259;62170;-83
2023/11/12 07:30:20;;;;;;;;;;;;;;;6.91;87.10;100106.81;106384;1258;125277;-84
2023/11/12 07:32:47;;;;;;;;;;;;;;;6.93;87.04;100105.48;106504;1258;75917;-84
2023/11/12 07:35:14;;;;;;;;;;;;;;;6.99;87.11;100104.93;106581;1258;64329;-83
2023/11/12 07:37:43;;;;;;;;;;;;;;;7.04;87.10;100104.39;106346;1264;124946;-83
2023/11/12 07:40:11;;;;;;;;;;;;;;;7.11;87.03;100102.49;106609;1258;62092;-83
2023/11/12 07:42:42;;;;;;;;;;;;;;;7.17;86.98;100103.39;106458;1257;124959;-80
2023/11/12 07:45:09;;;;;;;;;;;;;;;7.27;87.04;100101.89;106530;1256;74189;-79
2023/11/12 07:47:36;;;;;;;;;;;;;;;7.35;86.95;100103.02;106640;1261;66829;-78
2023/11/12 07:50:03;;;;;;;;;;;;;;;7.46;87.04;100106.45;106656;1257;125730;-80
2023/11/12 07:52:31;;;;;;;;;;;;;;;7.57;87.05;100103.41;106412;1258;62106;-80
2023/11/12 07:54:57;;;;;;;;;;;;;;;7.72;87.07;100106.96;106430;1258;125067;-81
2023/11/12 07:57:24;;;;;;;;;;;;;;;7.88;87.06;100104.57;106471;1258;75518;-79
2023/11/12 07:59:51;;;;;;;;;;;;;;;8.00;86.91;100103.48;106501;1261;125251;-82
2023/11/12 08:02:18;;;;;;;;;;;;;;;8.07;86.66;100104.17;106445;1259;72743;-83
2023/11/12 08:04:45;;;;;;;;;;;;;;;8.14;86.50;100103.29;106436;1257;62053;-84
2023/11/12 08:07:13;;;;;;;;;;;;;;;8.20;86.42;100107.10;106248;1257;125093;-84
2023/11/12 08:09:43;;;;;;;;;;;;;;;8.24;86.30;100108.42;106392;1257;76064;-86
2023/11/12 08:12:10;;;;;;;;;;;;;;;8.28;86.15;100114.12;106272;1257;125106;-87
2023/11/12 08:14:37;;;;;;;;;;;;;;;8.30;85.89;100114.00;106589;1259;72727;-87
2023/11/12 08:17:05;;;;;;;;;;;;;;;8.31;85.73;100117.15;106465;1259;62205;-91
2023/11/12 08:19:33;;;;;;;;;;;;;;;8.32;85.60;100118.94;106653;1256;125183;-89
2023/11/12 08:22:00;;;;;;;;;;;;;;;8.36;85.64;100120.27;106528;1257;74177;-88
2023/11/12 08:24:27;;;;;;;;;;;;;;;8.40;85.43;100121.39;106517;1263;125218;-88
2023/11/12 08:26:55;;;;;;;;;;;;;;;8.41;85.32;100122.12;106575;1260;72864;-88
2023/11/12 08:29:22;;;;;;;;;;;;;;;8.44;85.32;100127.27;106581;1261;61950;-88
2023/11/12 08:31:49;;;;;;;;;;;;;;;8.49;85.28;100127.93;106361;1264;125158;-90
2023/11/12 08:34:21;;;;;;;;;;;;;;;8.55;85.14;100132.62;106476;1262;75519;-89
2023/11/12 08:36:49;;;;;;;;;;;;;;;8.57;84.95;100137.75;106772;1257;125682;-90
2023/11/12 08:39:16;;;;;;;;;;;;;;;8.62;84.80;100136.09;106585;1257;72714;-89
2023/11/12 08:41:46;;;;;;;;;;;;;;;8.66;84.72;100134.09;106740;1258;62111;-89
2023/11/12 08:44:15;;;;;;;;;;;;;;;8.70;84.60;100133.31;106538;1257;123618;-89
2023/11/12 08:46:42;;;;;;;;;;;;;;;8.73;84.33;100136.16;106703;1258;73538;-88
2023/11/12 08:49:09;;;;;;;;;;;;;;;8.70;84.17;100140.48;106409;1258;124378;-88
2023/11/12 08:51:36;;;;;;;;;;;;;;;8.69;84.14;100142.55;106313;1259;71250;-85
2023/11/12 08:54:03;;;;;;;;;;;;;;;8.71;84.13;100144.19;106322;1256;125124;-85
2023/11/12 08:56:29;;;;;;;;;;;;;;;8.78;84.23;100147.83;106378;1258;62047;-89
2023/11/12 08:58:59;;;;;;;;;;;;;;;8.86;84.32;100149.05;106544;1257;75502;-86
2023/11/12 09:01:26;;;;;;;;;;;;;;;8.95;84.17;100144.86;106473;1263;124817;-86
2023/11/12 09:03:53;;;;;;;;;;;;;;;9.04;84.02;100143.84;106350;1258;71376;-86
2023/11/12 09:06:19;;;;;;;;;;;;;;;9.11;83.78;100148.56;106332;1264;125176;-87
2023/11/12 09:08:47;;;;;;;;;;;;;;;9.19;83.72;100149.43;106493;1258;60077;-86
2023/11/12 09:11:14;;;;;;;;;;;;;;;9.30;83.69;100152.81;106366;1261;74417;-87
2023/11/12 09:13:45;;;;;;;;;;;;;;;9.41;83.52;100152.67;106248;1263;125256;-86
2023/11/12 09:16:12;;;;;;;;;;;;;;;9.45;83.28;100151.34;106642;1261;71464;-84
2023/11/12 09:18:39;;;;;;;;;;;;;;;9.51;82.92;100154.26;106414;1257;124387;-84
2023/11/12 09:21:06;;;;;;;;;;;;;;;9.55;82.80;100155.21;105785;1257;1093439;-87
2023/11/12 09:23:36;;;;;;;;;;;;;;;9.57;82.50;100153.51;106272;1258;73095;-87
2023/11/12 09:26:04;;;;;;;;;;;;;;;9.59;82.39;100150.57;106328;1258;125060;-84
2023/11/12 09:28:31;;;;;;;;;;;;;;;9.63;82.33;100148.89;106386;1257;71459;-90
2023/11/12 09:30:57;;;;;;;;;;;;;;;9.66;82.15;100150.16;106429;1258;124952;-89
2023/11/12 09:33:25;;;;;;;;;;;;;;;9.69;81.92;100155.85;106512;1259;60175;-91
2023/11/12 09:35:52;;;;;;;;;;;;;;;9.73;81.99;100161.52;106638;1260;125312;-88
2023/11/12 09:38:19;;;;;;;;;;;;;;;9.79;81.84;100162.52;106526;1258;66483;-91
2023/11/12 09:40:46;;;;;;;;;;;;;;;9.84;81.56;100162.79;106764;1257;72277;-88
2023/11/12 09:43:13;;;;;;;;;;;;;;;9.87;81.35;100162.33;106679;1263;124991;-87
2023/11/12 09:45:43;;;;;;;;;;;;;;;9.88;81.29;100162.34;106708;1261;62115;-89
2023/11/12 09:48:14;;;;;;;;;;;;;;;9.92;80.98;100162.22;106712;1258;125169;-90
2023/11/12 09:50:44;;;;;;;;;;;;;;;9.94;80.88;100160.86;107095;1258;65326;-88
2023/11/12 09:53:12;;;;;;;;;;;;;;;10.01;80.98;100157.48;106741;1257;71127;-89
2023/11/12 09:55:43;;;;;;;;;;;;;;;10.02;80.51;100162.40;106589;1256;124679;-90
2023/11/12 09:58:10;;;;;;;;;;;;;;;10.01;80.40;100165.01;106737;1256;62407;-90
2023/11/12 10:00:38;;;;;;;;;;;;;;;10.00;80.29;100165.70;106572;1262;125017;-90
2023/11/12 10:03:12;;;;;;;;;;;;;;;10.01;80.42;100168.70;106603;1261;63944;-90
2023/11/12 10:05:40;;;;;;;;;;;;;;;10.07;80.45;100165.98;106545;1259;71424;-90
2023/11/12 10:08:08;;;;;;;;;;;;;;;10.10;80.12;100167.63;106558;1259;125058;-89
2023/11/12 10:10:35;;;;;;;;;;;;;;;10.09;79.87;100171.98;106647;1263;61950;-89
2023/11/12 10:13:04;;;;;;;;;;;;;;;10.12;80.08;100172.40;106328;1257;125255;-89
2023/11/12 10:15:35;;;;;;;;;;;;;;;10.18;79.97;100172.48;106503;1257;66042;-90
2023/11/12 10:18:04;;;;;;;;;;;;;;;10.22;79.85;100169.40;106497;1259;124671;-90
2023/11/12 10:21:04;;;;;;;;;;;;;;;;;;;;;
2023/11/12 10:24:04;;;;;;;;;;;;;;;10.29;79.68;100170.59;106561;1259;62098;-91
2023/11/12 10:26:47;;;;;;;;;;;;;;;10.35;79.42;100170.72;106346;1258;74254;-88
2023/11/12 10:29:21;;;;;;;;;;;;;;;10.34;79.15;100164.36;106505;1257;67527;-89
2023/11/12 10:31:58;;;;;;;;;;;;;;;10.35;78.99;100166.67;106499;1262;70255;-88
2023/11/12 10:34:38;;;;;;;;;;;;;;;10.38;79.08;100170.77;106307;1261;62087;-89
2023/11/12 10:37:14;;;;;;;;;;;;;;;10.40;78.74;100179.21;106229;1264;125226;-89
2023/11/12 10:39:41;;;;;;;;;;;;;;;10.43;78.73;100176.63;106445;1259;75211;-89
2023/11/12 10:42:24;;;;;;;;;;;;;;;10.45;78.67;100173.16;106515;1258;125974;-90
2023/11/12 10:44:55;;;;;;;;;;;;;;;10.49;78.85;100170.94;106331;1259;73629;-86
2023/11/12 10:47:22;;;;;;;;;;;;;;;10.58;78.81;100173.17;106575;1261;62583;-87
2023/11/12 10:49:49;;;;;;;;;;;;;;;10.65;78.77;100173.66;106445;1258;124940;-89
2023/11/12 10:52:17;;;;;;;;;;;;;;;10.73;78.56;100176.39;106506;1258;75422;-87
2023/11/12 10:54:44;;;;;;;;;;;;;;;10.75;78.31;100178.19;106296;1263;125416;-85
2023/11/12 10:57:11;;;;;;;;;;;;;;;10.78;78.17;100178.05;106388;1262;70523;-86
2023/11/12 10:59:42;;;;;;;;;;;;;;;10.77;77.97;100180.31;106498;1260;62071;-85
2023/11/12 11:02:19;;;;;;;;;;;;;;;10.69;77.56;100180.03;106486;1261;124696;-86
2023/11/12 11:04:46;;;;;;;;;;;;;;;10.56;77.51;100176.30;106408;1261;73959;-87
2023/11/12 11:07:16;;;;;;;;;;;;;;;10.48;77.58;100176.01;106599;1262;124819;-86
2023/11/12 11:09:43;;;;;;;;;;;;;;;10.39;77.54;100173.23;106764;1257;72729;-87
2023/11/12 11:12:10;;;;;;;;;;;;;;;10.23;77.35;100170.11;106510;1258;125185;-87
2023/11/12 11:14:36;;;;;;;;;;;;;;;10.12;77.60;100172.05;106544;1264;60353;-88
2023/11/12 11:17:08;;;;;;;;;;;;;;;10.03;77.57;100171.00;106804;1257;75666;-89
2023/11/12 11:19:43;;;;;;;;;;;;;;;9.92;77.45;100169.76;106664;1259;125265;-87
2023/11/12 11:22:29;;;;;;;;;;;;;;;9.74;77.28;100170.13;106840;1259;71516;-86
2023/11/12 11:24:56;;;;;;;;;;;;;;;9.61;77.61;100170.40;106690;1257;124951;-88
2023/11/12 11:27:25;;;;;;;;;;;;;;;9.52;77.70;100173.91;106822;1257;62084;-89
2023/11/12 11:30:18;;;;;;;;;;;;;;;9.45;77.78;100175.15;106610;1258;75656;-89
2023/11/12 11:32:54;;;;;;;;;;;;;;;9.38;77.81;100174.30;106732;1258;64823;-88
2023/11/12 11:35:21;;;;;;;;;;;;;;;9.31;77.89;100169.98;106882;1257;71343;-87
2023/11/12 11:38:07;;;;;;;;;;;;;;;9.29;78.06;100167.46;106431;1257;124540;-88
2023/11/12 11:40:35;;;;;;;;;;;;;;;9.26;78.02;100166.20;106569;1257;62055;-89
2023/11/12 11:43:20;;;;;;;;;;;;;;;9.23;78.02;100165.24;106357;1263;124377;-89
2023/11/12 11:46:09;;;;;;;;;;;;;;;9.23;78.17;100165.27;106372;1261;64096;-88
2023/11/12 11:48:36;;;;;;;;;;;;;;;9.26;78.26;100159.20;106399;1260;124553;-88
2023/11/12 11:51:23;;;;;;;;;;;;;;;9.33;78.32;100164.07;107066;1264;60223;-89
2023/11/12 11:53:51;;;;;;;;;;;;;;;9.41;78.42;100164.73;106430;1260;62028;-87
2023/11/12 11:56:19;;;;;;;;;;;;;;;9.44;78.31;100160.80;106338;1263;124487;-88
2023/11/12 11:58:51;;;;;;;;;;;;;;;9.48;78.19;100161.73;106475;1260;65201;-86
2023/11/12 12:01:18;;;;;;;;;;;;;;;9.50;78.13;100154.77;106253;1259;125106;-85
2023/11/12 12:03:45;;;;;;;;;;;;;;;9.50;77.98;100154.07;106534;1258;62094;-84
2023/11/12 12:06:18;;;;;;;;;;;;;;;9.50;77.96;100154.77;106407;1263;125241;-83
2023/11/12 12:08:50;;;;;;;;;;;;;;;9.52;77.92;100154.12;106468;1258;74164;-86
2023/11/12 12:11:17;;;;;;;;;;;;;;;9.54;77.78;100153.46;106520;1260;66868;-85
2023/11/12 12:13:56;;;;;;;;;;;;;;;9.55;77.81;100152.77;106320;1264;125091;-86
2023/11/12 12:16:26;;;;;;;;;;;;;;;9.57;77.86;100152.45;106557;1264;62116;-86
2023/11/12 12:18:54;;;;;;;;;;;;;;;9.57;77.78;100150.54;106313;1261;126849;-80
2023/11/12 12:21:21;;;;;;;;;;;;;;;9.61;77.71;100152.88;106434;1263;75494;-84
2023/11/12 12:23:48;;;;;;;;;;;;;;;9.63;77.52;100153.95;106385;1270;65802;-85
2023/11/12 12:26:14;;;;;;;;;;;;;;;9.61;77.15;100155.16;106374;1257;124447;-85
2023/11/12 12:28:41;;;;;;;;;;;;;;;9.59;77.17;100153.36;106460;1264;62210;-82
2023/11/12 12:31:08;;;;;;;;;;;;;;;9.57;77.20;100152.98;106479;1258;124753;-83
2023/11/12 12:33:36;;;;;;;;;;;;;;;9.57;77.17;100152.27;106487;1261;74956;-80
2023/11/12 12:36:13;;;;;;;;;;;;;;;9.57;77.17;100152.44;106398;1258;65848;-83
2023/11/12 12:38:59;;;;;;;;;;;;;;;9.53;76.94;100152.40;106209;1257;71223;-81